createdAt,value
2022-11-18T00:01:50.163Z,6.00
2022-11-18T00:04:19.009Z,6.00
2022-11-18T00:06:48.800Z,6.00
2022-11-18T00:09:25.623Z,6.00
2022-11-18T00:12:29.676Z,6.00
2022-11-18T00:14:58.069Z,6.00
2022-11-18T00:17:26.130Z,6.00
2022-11-18T00:19:59.836Z,6.00
2022-11-18T00:22:30.014Z,5.90
2022-11-18T00:25:04.476Z,5.90
2022-11-18T00:27:32.507Z,5.90
2022-11-18T00:30:00.847Z,5.90
2022-11-18T00:32:29.585Z,5.80
2022-11-18T00:34:57.949Z,5.80
2022-11-18T00:37:26.770Z,5.90
2022-11-18T00:39:56.078Z,5.90
2022-11-18T00:42:47.395Z,5.90
2022-11-18T00:45:15.500Z,5.90
2022-11-18T00:47:43.642Z,5.80
2022-11-18T00:50:20.475Z,5.80
2022-11-18T00:52:49.317Z,5.80
2022-11-18T00:55:18.342Z,5.80
2022-11-18T00:57:46.403Z,5.80
2022-11-18T01:00:14.679Z,5.80
2022-11-18T01:03:22.135Z,5.80
2022-11-18T01:05:51.612Z,5.70
2022-11-18T01:08:20.717Z,5.80
2022-11-18T01:10:49.559Z,5.70
2022-11-18T01:13:23.266Z,5.80
2022-11-18T01:15:56.706Z,5.70
2022-11-18T01:18:57.566Z,5.70
2022-11-18T01:21:32.945Z,5.60
2022-11-18T01:24:02.564Z,5.70
2022-11-18T01:26:31.206Z,5.70
2022-11-18T01:28:59.648Z,5.70
2022-11-18T01:31:27.935Z,5.60
2022-11-18T01:33:56.749Z,5.60
2022-11-18T01:36:28.149Z,5.60
2022-11-18T01:38:59.301Z,5.60
2022-11-18T01:41:28.885Z,5.70
2022-11-18T01:43:59.180Z,5.70
2022-11-18T01:46:33.006Z,5.70
2022-11-18T01:49:09.250Z,5.70
2022-11-18T01:51:46.922Z,5.70
2022-11-18T01:54:20.139Z,5.70
2022-11-18T01:56:51.084Z,5.70
2022-11-18T01:59:21.316Z,5.70
2022-11-18T02:01:54.028Z,5.70
2022-11-18T02:04:29.623Z,5.70
2022-11-18T02:07:03.177Z,5.70
2022-11-18T02:09:40.043Z,5.70
2022-11-18T02:12:08.217Z,5.70
2022-11-18T02:14:38.432Z,5.60
2022-11-18T02:17:25.417Z,5.50
2022-11-18T02:20:18.902Z,5.50
2022-11-18T02:22:58.000Z,5.30
2022-11-18T02:25:38.455Z,5.20
2022-11-18T02:28:24.884Z,5.30
2022-11-18T02:30:59.353Z,5.20
2022-11-18T02:37:35.102Z,5.30
2022-11-18T02:40:13.626Z,5.30
2022-11-18T02:42:46.443Z,5.20
2022-11-18T02:45:17.679Z,5.20
2022-11-18T02:47:52.654Z,5.20
2022-11-18T02:50:30.423Z,5.20
2022-11-18T02:53:01.980Z,5.10
2022-11-18T02:55:34.546Z,5.10
2022-11-18T02:58:09.964Z,5.10
2022-11-18T03:00:40.093Z,5.10
2022-11-18T03:08:04.294Z,5.10
2022-11-18T03:10:43.172Z,5.10
2022-11-18T03:13:23.610Z,5.00
2022-11-18T03:15:59.721Z,4.90
2022-11-18T03:18:33.443Z,5.00
2022-11-18T03:21:08.909Z,5.00
2022-11-18T03:23:42.202Z,4.90
2022-11-18T03:26:29.341Z,4.90
2022-11-18T03:29:19.043Z,5.00
2022-11-18T03:31:48.916Z,4.90
2022-11-18T03:34:19.522Z,4.90
2022-11-18T03:37:27.391Z,4.90
2022-11-18T03:39:58.341Z,4.80
2022-11-18T03:42:26.746Z,4.80
2022-11-18T03:45:01.255Z,4.90
2022-11-18T03:47:32.874Z,4.90
2022-11-18T03:50:06.648Z,4.80
2022-11-18T03:53:07.698Z,4.80
2022-11-18T03:55:49.145Z,4.80
2022-11-18T03:58:30.288Z,4.70
2022-11-18T04:01:02.781Z,4.70
2022-11-18T04:03:32.296Z,4.70
2022-11-18T04:06:08.355Z,4.60
2022-11-18T04:09:19.136Z,4.60
2022-11-18T04:12:17.028Z,4.60
2022-11-18T04:14:49.461Z,4.50
2022-11-18T04:17:27.541Z,4.50
2022-11-18T04:20:53.190Z,4.50
2022-11-18T04:23:22.887Z,4.60
2022-11-18T04:25:59.085Z,4.40
2022-11-18T04:28:27.711Z,4.50
2022-11-18T04:30:56.595Z,4.40
2022-11-18T04:33:24.702Z,4.50
2022-11-18T04:35:59.271Z,4.60
2022-11-18T04:38:27.085Z,4.60
2022-11-18T04:40:56.470Z,4.60
2022-11-18T04:44:15.273Z,4.60
2022-11-18T04:47:15.662Z,4.60
2022-11-18T04:49:44.957Z,4.60
2022-11-18T04:52:15.531Z,4.40
2022-11-18T04:54:49.033Z,4.30
2022-11-18T04:57:20.606Z,4.40
2022-11-18T04:59:51.236Z,4.40
2022-11-18T05:02:19.684Z,4.40
2022-11-18T05:04:57.481Z,4.50
2022-11-18T05:07:28.113Z,4.50
2022-11-18T05:10:02.220Z,4.50
2022-11-18T05:13:04.487Z,4.50
2022-11-18T05:15:35.204Z,4.50
2022-11-18T05:18:10.852Z,4.40
2022-11-18T05:20:48.313Z,4.30
2022-11-18T05:23:17.570Z,4.40
2022-11-18T05:25:46.022Z,4.50
2022-11-18T05:28:19.383Z,4.50
2022-11-18T05:31:27.718Z,4.50
2022-11-18T05:33:57.543Z,4.50
2022-11-18T05:36:26.042Z,4.40
2022-11-18T05:38:57.571Z,4.40
2022-11-18T05:41:52.132Z,4.40
2022-11-18T05:44:21.917Z,4.40
2022-11-18T05:47:25.376Z,4.30
2022-11-18T05:50:26.836Z,4.40
2022-11-18T05:52:56.368Z,4.40
2022-11-18T05:55:34.056Z,4.40
2022-11-18T06:02:55.475Z,4.30
2022-11-18T06:10:20.937Z,4.10
2022-11-18T06:12:53.430Z,4.10
2022-11-18T06:15:29.487Z,4.10
2022-11-18T06:18:02.887Z,4.10
2022-11-18T06:20:40.691Z,4.20
2022-11-18T06:23:12.661Z,4.20
2022-11-18T06:25:45.596Z,4.10
2022-11-18T06:28:16.419Z,4.10
2022-11-18T06:30:48.142Z,4.10
2022-11-18T06:33:28.760Z,4.10
2022-11-18T06:36:03.643Z,4.10
2022-11-18T06:38:39.133Z,4.00
2022-11-18T06:41:41.017Z,4.10
2022-11-18T06:44:11.633Z,4.00
2022-11-18T06:46:56.182Z,4.10
2022-11-18T06:49:25.836Z,4.00
2022-11-18T06:51:58.308Z,4.00
2022-11-18T06:54:31.476Z,3.90
2022-11-18T06:57:09.622Z,3.90
2022-11-18T06:59:39.842Z,3.80
2022-11-18T07:02:08.125Z,3.90
2022-11-18T07:04:40.249Z,3.90
2022-11-18T07:07:09.473Z,4.00
2022-11-18T07:09:40.105Z,3.90
2022-11-18T07:12:10.970Z,3.90
2022-11-18T07:14:40.929Z,4.00
2022-11-18T07:24:49.016Z,4.00
2022-11-18T07:27:18.164Z,4.10
2022-11-18T07:29:47.408Z,4.00
2022-11-18T07:32:21.236Z,4.10
2022-11-18T07:34:57.489Z,4.00
2022-11-18T07:37:27.648Z,3.90
2022-11-18T07:40:04.142Z,3.90
2022-11-18T07:42:43.456Z,4.00
2022-11-18T07:45:57.004Z,3.90
2022-11-18T07:48:26.323Z,3.90
2022-11-18T07:50:56.669Z,3.80
2022-11-18T08:03:10.199Z,4.00
2022-11-18T08:06:03.941Z,3.50
2022-11-18T08:08:42.836Z,3.60
2022-11-18T08:16:22.138Z,3.50
2022-11-18T08:18:55.523Z,3.50
2022-11-18T08:21:27.703Z,3.30
2022-11-18T08:31:46.639Z,3.40
2022-11-18T08:34:27.290Z,3.30
2022-11-18T08:37:01.896Z,3.30
2022-11-18T08:39:44.938Z,3.20
2022-11-18T08:47:09.857Z,3.10
2022-11-18T08:49:42.685Z,2.90
2022-11-18T08:52:46.091Z,2.80
2022-11-18T08:55:15.208Z,2.90
2022-11-18T08:57:49.906Z,3.10
2022-11-18T09:00:20.359Z,2.90
2022-11-18T09:02:59.145Z,2.80
2022-11-18T09:05:59.885Z,2.90
2022-11-18T09:08:30.503Z,2.90
2022-11-18T09:10:58.586Z,2.80
2022-11-18T09:13:56.178Z,2.90
2022-11-18T09:16:15.096Z,2.90
2022-11-18T09:18:43.894Z,3.00
2022-11-18T09:21:11.882Z,2.80
2022-11-18T09:23:40.219Z,2.90
2022-11-18T09:26:14.041Z,2.90
2022-11-18T09:28:48.865Z,2.90
2022-11-18T09:31:20.335Z,2.80
2022-11-18T09:33:49.395Z,2.90
2022-11-18T09:36:23.351Z,2.60
2022-11-18T09:38:53.666Z,2.70
2022-11-18T09:41:40.392Z,2.70
2022-11-18T09:44:20.855Z,2.70
2022-11-18T09:47:08.050Z,2.70
2022-11-18T09:49:39.126Z,2.90
2022-11-18T09:52:14.340Z,2.90
2022-11-18T09:54:51.086Z,2.80
2022-11-18T09:57:23.634Z,2.90
2022-11-18T09:59:52.471Z,2.90
2022-11-18T10:06:23.926Z,2.70
2022-11-18T10:09:11.417Z,2.50
2022-11-18T10:11:42.203Z,2.50
2022-11-18T10:14:19.651Z,2.40
2022-11-18T10:16:57.840Z,2.50
2022-11-18T10:19:38.642Z,2.50
2022-11-18T10:22:19.445Z,2.40
2022-11-18T10:24:56.418Z,2.50
2022-11-18T10:27:26.620Z,2.40
2022-11-18T10:29:56.413Z,2.30
2022-11-18T10:32:56.303Z,2.40
2022-11-18T10:35:36.555Z,2.50
2022-11-18T10:38:14.641Z,2.60
2022-11-18T10:41:02.152Z,2.60
2022-11-18T10:43:49.355Z,2.50
2022-11-18T10:46:25.556Z,2.50
2022-11-18T10:49:21.587Z,2.40
2022-11-18T10:52:07.114Z,2.50
2022-11-18T10:54:37.920Z,2.50
2022-11-18T11:02:22.668Z,2.40
2022-11-18T11:04:56.211Z,2.30
2022-11-18T11:07:37.768Z,2.20
2022-11-18T11:10:40.412Z,2.10
2022-11-18T11:13:16.537Z,2.00
2022-11-18T11:15:48.808Z,2.00
2022-11-18T11:18:50.840Z,1.90
2022-11-18T11:21:24.361Z,1.80
2022-11-18T11:24:25.930Z,1.90
2022-11-18T11:28:17.946Z,1.90
2022-11-18T11:30:57.586Z,1.80
2022-11-18T11:33:33.915Z,1.80
2022-11-18T11:36:25.681Z,1.90
2022-11-18T11:39:04.247Z,1.90
2022-11-18T11:41:49.886Z,2.00
2022-11-18T11:44:39.562Z,1.90
2022-11-18T11:47:42.050Z,1.90
2022-11-18T11:58:18.322Z,2.00
2022-11-18T12:06:16.607Z,1.90
2022-11-18T12:08:56.788Z,1.80
2022-11-18T12:12:18.844Z,2.00
2022-11-18T12:14:51.141Z,1.90
2022-11-18T12:17:44.470Z,1.90
2022-11-18T12:24:33.907Z,1.90
2022-11-18T12:27:05.093Z,2.00
2022-11-18T12:29:53.512Z,2.00
2022-11-18T12:32:45.914Z,1.80
2022-11-18T12:35:14.850Z,1.90
2022-11-18T12:37:47.709Z,1.80
2022-11-18T12:40:52.924Z,1.90
2022-11-18T12:43:49.503Z,1.90
2022-11-18T12:46:41.394Z,2.00
2022-11-18T12:49:22.813Z,1.90
2022-11-18T12:52:24.291Z,1.90
2022-11-18T12:55:01.929Z,1.90
2022-11-18T12:57:32.466Z,1.70
2022-11-18T13:00:16.631Z,1.80
2022-11-18T13:10:01.236Z,1.90
2022-11-18T13:12:43.001Z,1.70
2022-11-18T13:15:38.868Z,1.70
2022-11-18T13:26:08.521Z,1.50
2022-11-18T13:35:55.507Z,1.60
2022-11-18T13:38:28.423Z,1.70
2022-11-18T13:41:19.419Z,1.60
2022-11-18T13:44:19.571Z,1.60
2022-11-18T13:47:46.330Z,1.60
2022-11-18T13:50:17.683Z,1.50
2022-11-18T13:52:46.091Z,1.40
2022-11-18T13:55:29.317Z,1.40
2022-11-18T14:01:15.127Z,1.40
2022-11-18T14:03:51.886Z,1.30
2022-11-18T14:06:25.320Z,1.30
2022-11-18T14:09:04.609Z,1.20
2022-11-18T14:11:43.509Z,1.10
2022-11-18T14:23:53.434Z,1.10
2022-11-18T14:31:37.302Z,1.10
2022-11-18T14:43:07.429Z,1.00
2022-11-18T14:45:42.199Z,1.00
2022-11-18T14:48:20.977Z,1.00
2022-11-18T14:50:49.847Z,1.00
2022-11-18T14:53:18.720Z,0.90
2022-11-18T14:55:49.628Z,0.80
2022-11-18T14:58:25.339Z,0.80
2022-11-18T15:01:05.245Z,0.90
2022-11-18T15:04:37.422Z,0.80
2022-11-18T15:07:06.601Z,0.90
2022-11-18T15:23:05.756Z,0.70
2022-11-18T15:25:38.900Z,0.70
2022-11-18T15:28:12.970Z,0.60
2022-11-18T15:49:33.569Z,0.30
2022-11-18T15:52:08.672Z,0.10
2022-11-18T15:54:45.494Z,0.10
2022-11-18T15:57:22.038Z,0.20
2022-11-18T15:59:50.467Z,0.10
2022-11-18T16:02:51.574Z,0.20
2022-11-18T16:05:20.139Z,0.30
2022-11-18T16:07:52.836Z,0.20
2022-11-18T16:14:29.807Z,0.10
2022-11-18T16:17:06.623Z,0.10
2022-11-18T16:19:39.120Z,0.10
2022-11-18T16:22:07.150Z,0.10
2022-11-18T16:24:36.050Z,0.10
2022-11-18T16:27:11.855Z,0.00
2022-11-18T16:29:47.220Z,0.10
2022-11-18T16:32:16.038Z,0.10
2022-11-18T16:34:44.409Z,-0.10
2022-11-18T16:37:12.242Z,0.10
2022-11-18T16:39:40.509Z,0.10
2022-11-18T16:42:11.137Z,0.10
2022-11-18T16:44:39.169Z,0.10
2022-11-18T16:47:14.121Z,0.20
2022-11-18T16:49:44.032Z,0.10
2022-11-18T16:58:40.742Z,0.10
2022-11-18T17:01:24.648Z,0.00
2022-11-18T17:03:55.602Z,0.00
2022-11-18T17:06:33.383Z,0.20
2022-11-18T17:09:01.658Z,0.10
2022-11-18T17:11:30.161Z,0.10
2022-11-18T17:14:06.255Z,0.20
2022-11-18T17:16:35.761Z,0.10
2022-11-18T17:19:10.104Z,0.20
2022-11-18T17:21:39.577Z,0.10
2022-11-18T17:24:07.940Z,-0.20
